Time;durP1;ratioP1;P1;durP2;ratioP2;P2;SDS_P1;SDS_P2;PMS_P1;PMS_P2;Temp;Humidity;BMP_temperature;BMP_pressure;BME280_temperature;BME280_humidity;BME280_pressure;Samples;Min_cycle;Max_cycle;Signal;HPM_P1;HPM_P2
2023/06/18 00:01:00;;;;;;;7.43;6.72;;;;;;;19.43;44.68;96966.84;4938373;28;20267;-80
2023/06/18 00:03:26;;;;;;;7.35;6.57;;;;;;;19.39;44.83;96960.66;4891185;28;20239;-79
2023/06/18 00:05:53;;;;;;;7.13;6.43;;;;;;;19.40;44.52;96964.84;4921487;28;20420;-79
2023/06/18 00:08:19;;;;;;;7.30;6.45;;;;;;;19.43;44.02;96959.75;4919524;28;20373;-79
2023/06/18 00:10:45;;;;;;;7.10;6.38;;;;;;;19.41;43.98;96950.56;4936673;28;20142;-79
2023/06/18 00:13:10;;;;;;;7.40;6.70;;;;;;;19.41;44.12;96955.81;4938721;28;20140;-80
2023/06/18 00:15:36;;;;;;;7.20;6.50;;;;;;;19.37;43.90;96953.03;4891891;28;20324;-79
2023/06/18 00:18:01;;;;;;;7.50;6.65;;;;;;;19.31;44.41;96950.84;4924065;28;20397;-79
2023/06/18 00:20:27;;;;;;;7.40;6.38;;;;;;;19.23;44.53;96947.09;4907485;28;20520;-79
2023/06/18 00:22:53;;;;;;;7.35;6.43;;;;;;;19.24;44.44;96957.34;4920810;28;20246;-79
2023/06/18 00:25:19;;;;;;;6.82;6.13;;;;;;;19.17;44.17;96951.72;4900877;28;20158;-79
2023/06/18 00:27:45;;;;;;;7.25;6.32;;;;;;;19.15;44.26;96959.16;4944139;28;20188;-79
2023/06/18 00:30:11;;;;;;;6.90;6.30;;;;;;;19.11;44.71;96954.78;4938684;28;20274;-79
2023/06/18 00:32:36;;;;;;;7.40;6.60;;;;;;;19.05;45.05;96948.88;4920634;28;20698;-79
2023/06/18 00:35:01;;;;;;;8.98;6.78;;;;;;;18.98;45.43;96940.63;4909156;28;20157;-79
2023/06/18 00:37:27;;;;;;;6.72;6.10;;;;;;;18.98;44.85;96938.75;4946322;28;20338;-79
2023/06/18 00:39:54;;;;;;;6.68;5.97;;;;;;;19.00;44.71;96946.38;4914838;28;20277;-80
2023/06/18 00:42:20;;;;;;;7.10;6.22;;;;;;;18.92;44.93;96937.34;4906290;28;20218;-80
2023/06/18 00:44:46;;;;;;;7.13;6.43;;;;;;;18.87;45.40;96940.91;4919273;28;20196;-79
2023/06/18 00:47:12;;;;;;;7.47;6.68;;;;;;;18.89;45.58;96936.09;4920657;28;20399;-79
2023/06/18 00:49:47;;;;;;;7.25;6.55;;;;;;;18.88;45.24;96929.28;4921612;28;20355;-79
2023/06/18 00:52:13;;;;;;;6.88;6.20;;;;;;;18.88;45.33;96939.81;4935624;28;20273;-79
2023/06/18 00:54:44;;;;;;;7.57;6.68;;;;;;;18.94;44.83;96934.41;4912176;28;20201;-79
2023/06/18 00:57:13;;;;;;;7.00;6.03;;;;;;;18.85;44.79;96929.88;4922130;28;20297;-79
2023/06/18 00:59:42;;;;;;;6.28;5.65;;;;;;;18.82;44.48;96925.22;4908657;28;20295;-79
2023/06/18 01:02:08;;;;;;;6.80;6.10;;;;;;;18.82;44.18;96935.75;4946700;23;20202;-79
2023/06/18 01:04:35;;;;;;;6.70;6.03;;;;;;;18.77;44.57;96927.19;4952232;28;20656;-80
2023/06/18 01:07:01;;;;;;;7.40;6.60;;;;;;;18.74;44.94;96925.13;4946540;28;20621;-79
2023/06/18 01:09:27;;;;;;;7.30;6.40;;;;;;;18.75;45.31;96937.22;4961098;28;20198;-79
2023/06/18 01:11:53;;;;;;;6.90;5.82;;;;;;;18.67;45.31;96928.97;4944556;28;20262;-79
2023/06/18 01:14:26;;;;;;;7.18;6.40;;;;;;;18.76;44.93;96936.94;4962156;28;20186;-79
2023/06/18 01:16:53;;;;;;;7.45;5.97;;;;;;;18.66;44.70;96927.44;4976953;28;20573;-79
2023/06/18 01:19:43;;;;;;;6.93;6.28;;;;;;;18.74;44.46;96931.19;4969689;28;20189;-79
2023/06/18 01:22:24;;;;;;;6.65;6.05;;;;;;;18.72;45.07;96935.97;4969727;28;20325;-79
2023/06/18 01:24:51;;;;;;;6.75;5.93;;;;;;;18.61;44.72;96930.19;4963451;28;20280;-79
2023/06/18 01:27:21;;;;;;;7.15;6.18;;;;;;;18.58;44.61;96930.78;4973476;28;20232;-79
2023/06/18 01:29:48;;;;;;;7.03;6.32;;;;;;;18.58;44.80;96930.03;4968186;28;20171;-79
2023/06/18 01:32:14;;;;;;;5.80;5.30;;;;;;;18.55;44.05;96933.25;4968220;28;20316;-78
2023/06/18 01:34:40;;;;;;;7.05;5.70;;;;;;;18.52;43.95;96930.16;4969999;28;20396;-78
2023/06/18 01:37:15;;;;;;;6.88;5.63;;;;;;;18.64;43.95;96932.22;4959883;28;20267;-79
2023/06/18 01:39:54;;;;;;;6.32;5.72;;;;;;;18.66;44.19;96937.19;4980686;28;20170;-79
2023/06/18 01:42:21;;;;;;;6.57;5.97;;;;;;;18.52;43.91;96934.63;4952944;28;20290;-79
2023/06/18 01:44:55;;;;;;;7.03;5.68;;;;;;;18.53;43.97;96934.34;4946191;28;20172;-79
2023/06/18 01:47:21;;;;;;;5.97;5.38;;;;;;;18.50;44.01;96934.94;4961580;28;20198;-79
2023/06/18 01:49:47;;;;;;;6.47;5.38;;;;;;;18.43;43.80;96928.53;4960371;28;20290;-79
2023/06/18 01:52:16;;;;;;;6.40;5.63;;;;;;;18.42;44.40;96927.78;4955270;28;20285;-78
2023/06/18 01:54:43;;;;;;;6.78;6.07;;;;;;;18.38;44.34;96926.78;4948907;28;20340;-79
2023/06/18 01:57:09;;;;;;;6.85;6.00;;;;;;;18.31;44.81;96926.44;4941803;28;20336;-78
2023/06/18 01:59:34;;;;;;;8.25;6.10;;;;;;;18.28;44.80;96932.31;4954985;28;20154;-79
2023/06/18 02:01:59;;;;;;;6.57;5.85;;;;;;;18.25;44.87;96927.63;4966643;28;20329;-79
2023/06/18 02:04:25;;;;;;;6.40;5.60;;;;;;;18.21;44.69;96926.69;4968548;28;20458;-79
2023/06/18 02:06:50;;;;;;;5.85;5.20;;;;;;;18.19;44.50;96923.56;4933401;28;20389;-79
2023/06/18 02:09:16;;;;;;;6.22;5.47;;;;;;;18.19;44.13;96918.31;4964533;28;20457;-79
2023/06/18 02:11:41;;;;;;;6.57;5.85;;;;;;;18.21;43.96;96921.41;4951154;28;20202;-80
2023/06/18 02:14:07;;;;;;;7.63;6.40;;;;;;;18.22;43.95;96915.84;4935227;28;20199;-79
2023/06/18 02:16:32;;;;;;;7.57;5.72;;;;;;;18.22;43.79;96907.94;4962972;28;20187;-79
2023/06/18 02:18:58;;;;;;;6.05;5.30;;;;;;;18.21;44.01;96910.88;4949422;28;20288;-78
2023/06/18 02:21:23;;;;;;;5.57;5.00;;;;;;;18.24;43.53;96915.56;4959329;28;20254;-79
2023/06/18 02:23:48;;;;;;;5.82;5.20;;;;;;;18.30;43.80;96917.78;4946636;28;20475;-79
2023/06/18 02:26:16;;;;;;;5.70;5.10;;;;;;;18.39;43.39;96906.50;4966588;28;20401;-79
2023/06/18 02:28:42;;;;;;;6.18;5.47;;;;;;;18.47;43.47;96924.22;4954495;28;20318;-79
2023/06/18 02:31:07;;;;;;;6.00;5.40;;;;;;;18.26;44.56;96919.44;4981133;28;20509;-79
2023/06/18 02:33:33;;;;;;;6.03;5.43;;;;;;;18.13;45.16;96925.56;4944005;28;20426;-78
2023/06/18 02:35:58;;;;;;;6.68;5.97;;;;;;;18.07;45.20;96930.16;4930117;28;20195;-78
2023/06/18 02:38:23;;;;;;;6.00;5.40;;;;;;;18.01;45.50;96915.56;4978405;28;20313;-78
2023/06/18 02:40:49;;;;;;;6.50;5.70;;;;;;;18.02;46.28;96926.88;4923638;28;20530;-78
2023/06/18 02:43:14;;;;;;;6.38;5.78;;;;;;;18.04;46.06;96927.34;4949085;28;20163;-78
2023/06/18 02:45:40;;;;;;;6.00;5.38;;;;;;;18.01;46.02;96920.81;4948815;28;20168;-78
2023/06/18 02:48:05;;;;;;;6.13;5.53;;;;;;;17.96;45.91;96923.56;4931169;28;20408;-79
2023/06/18 02:50:31;;;;;;;6.53;5.93;;;;;;;17.91;46.10;96918.41;4947988;28;20518;-79
2023/06/18 02:52:59;;;;;;;7.07;6.30;;;;;;;17.85;46.16;96922.19;4941136;28;20179;-79
2023/06/18 02:55:24;;;;;;;6.80;5.45;;;;;;;17.82;46.14;96926.22;4943596;28;20171;-78
2023/06/18 02:57:50;;;;;;;6.00;5.40;;;;;;;17.85;46.01;96914.31;4942801;28;20415;-78
2023/06/18 03:00:16;;;;;;;6.22;5.63;;;;;;;17.81;45.88;96922.03;4931446;28;20447;-79
2023/06/18 03:02:42;;;;;;;6.90;6.22;;;;;;;17.75;45.82;96918.72;4915808;28;20206;-78
2023/06/18 03:05:08;;;;;;;7.10;5.93;;;;;;;17.70;45.76;96918.84;4949137;28;20313;-79
2023/06/18 03:07:33;;;;;;;6.47;5.88;;;;;;;17.66;46.00;96922.34;4949437;28;20231;-78
2023/06/18 03:09:59;;;;;;;6.38;5.78;;;;;;;17.67;46.06;96924.69;4963834;28;20455;-80
2023/06/18 03:12:25;;;;;;;6.85;5.97;;;;;;;17.66;46.63;96930.25;4934736;28;20165;-79
2023/06/18 03:14:50;;;;;;;6.85;5.90;;;;;;;17.62;46.55;96921.41;4945038;28;20172;-78
2023/06/18 03:17:16;;;;;;;6.32;5.72;;;;;;;17.60;46.57;96929.59;4958534;28;20360;-79
2023/06/18 03:19:41;;;;;;;6.43;5.82;;;;;;;17.58;46.52;96927.25;4962516;28;20180;-79
2023/06/18 03:22:06;;;;;;;7.60;5.75;;;;;;;17.57;46.69;96928.31;4938714;28;20287;-78
2023/06/18 03:24:33;;;;;;;6.55;5.90;;;;;;;17.55;46.62;96921.78;4960212;28;20214;-78
2023/06/18 03:26:59;;;;;;;7.25;6.55;;;;;;;17.52;46.46;96923.16;4933202;28;20230;-80
2023/06/18 03:29:30;;;;;;;6.50;5.80;;;;;;;17.55;46.39;96921.78;4957107;28;20176;-79
2023/06/18 03:31:56;;;;;;;6.90;6.20;;;;;;;17.48;46.11;96918.75;4961343;28;20254;-79
2023/06/18 03:34:22;;;;;;;6.80;5.75;;;;;;;17.54;45.90;96928.13;4965945;28;20453;-78
2023/06/18 03:36:48;;;;;;;6.47;5.82;;;;;;;17.52;45.98;96925.78;4929955;28;20523;-79
2023/06/18 03:39:15;;;;;;;6.95;5.75;;;;;;;17.56;45.89;96920.69;4924002;28;20272;-78
2023/06/18 03:41:40;;;;;;;6.85;6.10;;;;;;;17.55;46.58;96924.44;4938110;28;20485;-78
2023/06/18 03:44:06;;;;;;;7.32;5.68;;;;;;;17.61;46.57;96920.59;4948755;28;20251;-78
2023/06/18 03:46:32;;;;;;;7.13;5.68;;;;;;;17.64;46.49;96914.75;4978648;28;20201;-78
2023/06/18 03:48:57;;;;;;;5.90;5.35;;;;;;;17.67;46.81;96919.44;4966673;28;20214;-79
2023/06/18 03:51:23;;;;;;;6.57;5.88;;;;;;;17.72;46.38;96924.59;4948954;28;20282;-79
2023/06/18 03:53:50;;;;;;;6.72;6.00;;;;;;;17.71;46.85;96922.25;4960015;28;20215;-78
2023/06/18 03:56:15;;;;;;;5.78;5.25;;;;;;;17.77;47.08;96915.81;4960818;28;20286;-79
2023/06/18 03:58:40;;;;;;;6.43;5.80;;;;;;;17.84;46.65;96912.72;4953515;28;20202;-79
2023/06/18 04:01:07;;;;;;;6.68;5.97;;;;;;;17.85;46.79;96919.56;4961119;28;20538;-78
2023/06/18 04:03:32;;;;;;;7.15;6.13;;;;;;;17.85;47.54;96927.47;4938700;28;20379;-78
2023/06/18 04:05:58;;;;;;;6.03;5.32;;;;;;;17.85;47.22;96915.06;4957490;28;20289;-80
2023/06/18 04:08:23;;;;;;;5.88;5.28;;;;;;;17.86;48.00;96913.22;4965742;28;20222;-79
2023/06/18 04:10:49;;;;;;;7.65;5.97;;;;;;;17.93;47.75;96924.94;4943550;28;20503;-78
2023/06/18 04:13:15;;;;;;;6.45;5.78;;;;;;;17.99;47.86;96917.69;4945570;28;20234;-79
2023/06/18 04:15:41;;;;;;;6.43;5.82;;;;;;;18.07;47.65;96922.25;4940022;28;20288;-78
2023/06/18 04:18:08;;;;;;;6.55;5.85;;;;;;;18.19;48.04;96926.97;4976698;28;20268;-79
2023/06/18 04:20:34;;;;;;;7.57;6.45;;;;;;;18.21;47.76;96918.78;4963923;28;20254;-79
2023/06/18 04:22:59;;;;;;;6.13;5.53;;;;;;;18.26;47.75;96914.16;4965816;28;20383;-79
2023/06/18 04:25:25;;;;;;;6.75;6.05;;;;;;;18.30;47.78;96916.97;4958837;28;20243;-78
2023/06/18 04:27:50;;;;;;;7.03;6.30;;;;;;;18.38;47.73;96926.78;4964580;28;20182;-79
2023/06/18 04:30:16;;;;;;;6.55;5.95;;;;;;;18.44;47.39;96919.53;4922992;28;20218;-79
2023/06/18 04:32:41;;;;;;;6.55;5.95;;;;;;;18.50;47.84;96919.09;4946941;28;20447;-80
2023/06/18 04:35:07;;;;;;;7.18;6.47;;;;;;;18.53;48.33;96917.75;4952708;28;20211;-79
2023/06/18 04:37:33;;;;;;;6.75;6.15;;;;;;;18.62;48.22;96921.19;4964462;28;20227;-79
2023/06/18 04:39:58;;;;;;;6.45;5.85;;;;;;;18.68;48.45;96911.31;4975609;28;20366;-79
2023/06/18 04:42:24;;;;;;;6.43;5.82;;;;;;;18.78;47.91;96913.69;4954879;28;20194;-79
2023/06/18 04:44:49;;;;;;;6.53;5.93;;;;;;;18.89;47.79;96920.25;4975680;28;20551;-79
2023/06/18 04:47:15;;;;;;;6.07;5.47;;;;;;;18.97;48.03;96921.41;4977145;28;20155;-79
2023/06/18 04:49:42;;;;;;;6.28;5.68;;;;;;;19.00;47.63;96915.47;4930175;28;20192;-79
2023/06/18 04:52:07;;;;;;;6.25;5.65;;;;;;;19.11;47.83;96920.50;4944247;28;20426;-79
2023/06/18 04:54:33;;;;;;;6.30;5.80;;;;;;;19.16;47.66;96918.50;4938315;28;20463;-79
2023/06/18 04:56:59;;;;;;;8.27;6.88;;;;;;;19.22;47.74;96921.78;4926958;28;20211;-79
2023/06/18 04:59:24;;;;;;;6.78;6.18;;;;;;;19.25;47.91;96916.66;4930277;28;20295;-79
2023/06/18 05:01:51;;;;;;;8.35;6.28;;;;;;;19.35;48.57;96914.84;4940333;28;20412;-79
2023/06/18 05:04:16;;;;;;;6.78;6.03;;;;;;;19.44;48.00;96915.63;4966332;28;20326;-79
2023/06/18 05:06:42;;;;;;;6.40;5.80;;;;;;;19.53;48.49;96911.13;4946122;28;20181;-78
2023/06/18 05:09:07;;;;;;;6.93;6.22;;;;;;;19.56;48.49;96905.22;4978429;28;20275;-79
2023/06/18 05:11:32;;;;;;;7.07;6.47;;;;;;;19.64;47.58;96911.63;4959157;28;20129;-79
2023/06/18 05:13:58;;;;;;;7.43;6.53;;;;;;;19.77;46.56;96915.22;4944112;28;20294;-80
2023/06/18 05:16:24;;;;;;;6.63;6.03;;;;;;;19.87;46.20;96922.84;4960586;28;20318;-80
2023/06/18 05:18:49;;;;;;;7.43;6.72;;;;;;;19.99;45.62;96927.50;4981477;28;20190;-80
2023/06/18 05:21:15;;;;;;;7.13;6.40;;;;;;;20.08;45.79;96925.63;4963622;28;20269;-78
2023/06/18 05:23:41;;;;;;;7.35;6.65;;;;;;;20.21;45.90;96923.91;4938236;28;20344;-80
2023/06/18 05:26:10;;;;;;;7.68;6.97;;;;;;;20.29;46.33;96927.63;4963257;28;20408;-79
2023/06/18 05:28:35;;;;;;;7.45;6.78;;;;;;;20.36;45.25;96923.41;4945716;28;20277;-79
2023/06/18 05:31:01;;;;;;;7.50;6.55;;;;;;;20.48;44.70;96922.78;4943887;28;20280;-79
2023/06/18 05:33:26;;;;;;;7.22;6.53;;;;;;;20.63;44.63;96923.38;4944168;28;20276;-79
2023/06/18 05:35:51;;;;;;;6.82;6.22;;;;;;;20.76;44.13;96919.78;4967174;28;20216;-79
2023/06/18 05:38:17;;;;;;;7.40;6.80;;;;;;;20.86;43.98;96927.38;4962801;28;20427;-80
2023/06/18 05:40:42;;;;;;;7.75;6.63;;;;;;;20.91;42.75;96929.06;4958217;28;20237;-78
2023/06/18 05:43:07;;;;;;;6.90;6.30;;;;;;;20.95;42.59;96930.75;4945834;28;20215;-79
2023/06/18 05:45:34;;;;;;;7.00;6.40;;;;;;;21.02;43.50;96934.78;4974824;28;20366;-79
2023/06/18 05:48:00;;;;;;;8.23;7.22;;;;;;;21.09;44.99;96935.06;4965611;28;20280;-79
2023/06/18 05:50:25;;;;;;;8.65;7.82;;;;;;;21.11;46.34;96933.66;4968833;28;20435;-79
2023/06/18 05:52:50;;;;;;;8.32;7.63;;;;;;;21.14;46.09;96935.63;4961263;28;20227;-78
2023/06/18 05:55:16;;;;;;;8.10;7.30;;;;;;;21.20;46.02;96936.25;4965174;28;20534;-79
2023/06/18 05:57:42;;;;;;;7.65;7.00;;;;;;;21.30;45.93;96937.75;4983758;28;20254;-79
2023/06/18 06:00:08;;;;;;;7.63;6.93;;;;;;;21.39;46.13;96937.72;4941776;28;20525;-80
2023/06/18 06:02:34;;;;;;;8.38;7.63;;;;;;;21.47;44.68;96942.19;4943019;28;20201;-79
2023/06/18 06:04:59;;;;;;;7.97;7.18;;;;;;;21.61;43.50;96939.31;4947527;28;20208;-79
2023/06/18 06:07:24;;;;;;;7.65;6.95;;;;;;;21.83;43.21;96946.19;4973179;28;20304;-79
2023/06/18 06:09:50;;;;;;;7.57;6.88;;;;;;;22.06;42.14;96944.00;4940165;28;20272;-79
2023/06/18 06:12:16;;;;;;;7.32;6.63;;;;;;;22.21;42.35;96939.97;4954894;28;20326;-81
2023/06/18 06:14:42;;;;;;;7.80;7.10;;;;;;;22.37;42.76;96945.47;4948485;28;20399;-79
2023/06/18 06:17:07;;;;;;;7.63;6.93;;;;;;;22.52;42.36;96939.53;4943479;28;20465;-79
2023/06/18 06:19:33;;;;;;;7.25;6.65;;;;;;;22.69;42.01;96943.09;4968364;28;20524;-79
2023/06/18 06:21:58;;;;;;;7.25;6.65;;;;;;;22.91;40.89;96944.56;4959142;28;20253;-79
2023/06/18 06:24:24;;;;;;;7.20;6.60;;;;;;;23.15;41.00;96944.63;4946535;28;20129;-79
2023/06/18 06:26:50;;;;;;;8.27;7.57;;;;;;;23.36;40.80;96947.16;4942250;28;20215;-79
2023/06/18 06:29:15;;;;;;;8.38;7.57;;;;;;;23.63;40.37;96947.59;4977509;28;20249;-79
2023/06/18 06:31:41;;;;;;;7.55;6.85;;;;;;;23.81;39.19;96948.13;4964387;28;20419;-79
2023/06/18 06:34:06;;;;;;;7.32;6.72;;;;;;;24.04;39.74;96950.25;4946724;28;20208;-81
2023/06/18 06:36:31;;;;;;;8.15;7.40;;;;;;;24.25;38.63;96948.19;4966000;28;20268;-79
2023/06/18 06:38:57;;;;;;;7.93;7.22;;;;;;;24.48;38.89;96940.44;4957527;28;20199;-80
2023/06/18 06:41:23;;;;;;;7.95;6.93;;;;;;;24.70;38.59;96945.56;4948931;28;20208;-79
2023/06/18 06:43:48;;;;;;;8.00;7.38;;;;;;;24.98;37.79;96948.16;4947709;28;20584;-79
2023/06/18 06:46:13;;;;;;;8.18;7.35;;;;;;;25.22;36.53;96945.31;4947759;28;20235;-79
2023/06/18 06:48:40;;;;;;;7.78;7.07;;;;;;;25.54;36.13;96953.25;4953984;28;20287;-79
2023/06/18 06:51:05;;;;;;;7.90;7.20;;;;;;;25.79;36.78;96947.72;4930186;28;20390;-79
2023/06/18 06:53:30;;;;;;;7.80;7.10;;;;;;;25.92;36.50;96956.34;4932402;28;20411;-79
2023/06/18 06:55:56;;;;;;;7.72;7.03;;;;;;;26.04;37.02;96961.56;4923990;28;20483;-79
2023/06/18 06:58:21;;;;;;;8.05;7.35;;;;;;;26.12;36.56;96949.16;4968904;28;20332;-80
2023/06/18 07:00:47;;;;;;;8.15;7.45;;;;;;;26.34;36.07;96958.34;4950428;28;20508;-79
2023/06/18 07:03:12;;;;;;;8.82;8.13;;;;;;;26.46;36.43;96962.72;4943171;28;20249;-79
2023/06/18 07:05:37;;;;;;;7.78;7.07;;;;;;;26.40;36.07;96967.59;4958340;28;20144;-79
2023/06/18 07:08:05;;;;;;;8.00;7.30;;;;;;;26.52;36.07;96961.31;4980661;28;20326;-78
2023/06/18 07:10:31;;;;;;;8.05;7.43;;;;;;;26.78;35.33;96968.66;4967564;28;20152;-80
2023/06/18 07:12:56;;;;;;;7.85;7.22;;;;;;;26.97;35.72;96962.47;4967703;28;20195;-79
2023/06/18 07:15:21;;;;;;;8.52;7.80;;;;;;;27.09;35.45;96972.22;4950406;28;20274;-79
2023/06/18 07:17:47;;;;;;;8.05;7.35;;;;;;;27.27;34.85;96967.16;4966973;28;20163;-79
2023/06/18 07:20:12;;;;;;;8.55;7.80;;;;;;;27.31;34.51;96967.25;4954506;28;20733;-79
2023/06/18 07:22:38;;;;;;;7.82;7.15;;;;;;;27.57;32.79;96971.81;4981141;28;20629;-79
2023/06/18 07:25:04;;;;;;;7.45;6.82;;;;;;;27.63;32.24;96963.13;4949801;28;20309;-80
2023/06/18 07:27:30;;;;;;;8.38;6.97;;;;;;;27.78;33.28;96966.75;4934829;28;20169;-79
2023/06/18 07:29:56;;;;;;;8.05;7.38;;;;;;;27.88;32.63;96964.56;4933419;28;20199;-79
2023/06/18 07:32:21;;;;;;;8.02;7.32;;;;;;;27.95;31.70;96962.78;4956873;28;20515;-79
2023/06/18 07:34:46;;;;;;;8.05;7.35;;;;;;;28.11;31.93;96954.56;4966149;28;20372;-79
2023/06/18 07:37:15;;;;;;;7.50;6.90;;;;;;;28.53;32.35;96972.25;4966141;28;20210;-83
2023/06/18 07:39:40;;;;;;;7.43;6.78;;;;;;;28.64;31.67;96963.56;4961316;28;20202;-82
2023/06/18 07:42:06;;;;;;;8.20;7.40;;;;;;;28.84;31.64;96961.44;4964277;28;20178;-80
2023/06/18 07:44:31;;;;;;;7.60;7.00;;;;;;;29.06;30.75;96954.34;4949894;28;20530;-80
2023/06/18 07:46:57;;;;;;;8.10;7.50;;;;;;;29.04;30.35;96956.63;4980785;28;20193;-80
2023/06/18 07:49:22;;;;;;;8.18;7.38;;;;;;;29.20;31.02;96954.47;4964177;28;20293;-80
2023/06/18 07:51:48;;;;;;;8.10;7.40;;;;;;;29.39;30.79;96958.03;4944866;28;20535;-79
2023/06/18 07:54:13;;;;;;;8.23;7.53;;;;;;;29.57;30.59;96955.47;4967076;28;20211;-79
2023/06/18 07:56:39;;;;;;;7.80;7.03;;;;;;;29.92;31.07;96954.13;4953566;28;20278;-80
2023/06/18 07:59:04;;;;;;;6.93;6.32;;;;;;;30.21;28.98;96957.69;4962841;28;20210;-80
2023/06/18 08:01:30;;;;;;;7.72;7.03;;;;;;;30.62;28.79;96957.41;4931832;28;20276;-80
2023/06/18 08:03:55;;;;;;;7.80;7.10;;;;;;;30.85;28.58;96954.38;4943835;28;20577;-81
2023/06/18 08:06:21;;;;;;;7.38;6.78;;;;;;;31.20;27.92;96954.78;4957505;28;20205;-80
2023/06/18 08:08:49;;;;;;;7.15;6.60;;;;;;;31.31;27.05;96955.53;4945274;28;20574;-81
2023/06/18 08:11:15;;;;;;;7.38;6.65;;;;;;;31.35;26.94;96953.59;4970687;28;20380;-81
2023/06/18 08:13:40;;;;;;;6.50;6.00;;;;;;;31.47;23.95;96958.56;4980754;28;20162;-79
2023/06/18 08:16:06;;;;;;;7.18;6.57;;;;;;;31.41;23.91;96948.59;4957063;28;20441;-81
2023/06/18 08:18:32;;;;;;;6.20;5.70;;;;;;;31.92;23.86;96945.38;4948105;28;20325;-82
2023/06/18 08:20:57;;;;;;;5.90;5.50;;;;;;;32.14;23.55;96955.31;4960452;28;20828;-80
2023/06/18 08:23:23;;;;;;;6.28;5.72;;;;;;;32.29;22.82;96946.75;4963269;28;20197;-82
2023/06/18 08:25:48;;;;;;;7.13;6.63;;;;;;;32.22;22.88;96937.97;4927966;28;20099;-81
2023/06/18 08:28:13;;;;;;;6.75;6.15;;;;;;;32.33;23.48;96930.56;4922522;28;20172;-81
2023/06/18 08:30:39;;;;;;;6.22;5.72;;;;;;;32.26;22.78;96941.41;4950016;28;20172;-80
2023/06/18 08:33:04;;;;;;;5.95;5.55;;;;;;;32.56;22.75;96938.13;4943693;28;20411;-81
2023/06/18 08:35:30;;;;;;;6.30;5.80;;;;;;;32.79;20.69;96934.91;4963686;28;20664;-81
2023/06/18 08:37:55;;;;;;;6.22;5.82;;;;;;;32.91;21.63;96933.66;4958754;28;20200;-80
2023/06/18 08:40:24;;;;;;;6.13;5.65;;;;;;;32.98;22.51;96935.53;4964784;28;20385;-80
2023/06/18 08:42:50;;;;;;;6.93;6.30;;;;;;;33.14;21.51;96918.81;4941696;28;20547;-80
2023/06/18 08:45:16;;;;;;;5.72;5.32;;;;;;;33.08;21.92;96928.50;4953371;28;20279;-82
2023/06/18 08:47:41;;;;;;;6.07;5.55;;;;;;;33.28;21.71;96924.09;4933485;28;20691;-81
2023/06/18 08:50:08;;;;;;;6.25;5.85;;;;;;;33.44;21.22;96920.09;4968205;28;20319;-81
2023/06/18 08:52:34;;;;;;;5.68;5.28;;;;;;;33.73;20.81;96918.63;4944038;28;20161;-81
2023/06/18 08:55:02;;;;;;;5.95;5.55;;;;;;;33.89;20.27;96906.47;4952569;28;20235;-81
2023/06/18 08:57:48;;;;;;;6.30;5.80;;;;;;;34.24;20.58;96916.06;4938393;28;20184;-81
2023/06/18 09:00:14;;;;;;;6.38;5.97;;;;;;;34.16;20.63;96909.19;4950234;28;20372;-81
2023/06/18 09:02:41;;;;;;;5.70;5.20;;;;;;;34.47;19.97;96915.31;4973066;28;20233;-82
2023/06/18 09:05:07;;;;;;;6.00;5.60;;;;;;;34.56;20.50;96906.69;4943189;28;20322;-82
2023/06/18 09:07:34;;;;;;;6.82;6.15;;;;;;;34.69;19.32;96906.88;4960016;28;20160;-80
2023/06/18 09:10:02;;;;;;;6.18;5.72;;;;;;;34.43;19.18;96906.50;4951613;28;20106;-84
2023/06/18 09:12:28;;;;;;;6.28;5.88;;;;;;;34.58;20.31;96914.41;4972382;28;20037;-82
2023/06/18 09:14:53;;;;;;;5.70;5.30;;;;;;;34.83;18.82;96908.63;4956713;28;20516;-82
2023/06/18 09:17:19;;;;;;;6.28;5.88;;;;;;;34.56;19.22;96900.53;4976351;28;20506;-82
2023/06/18 09:19:46;;;;;;;6.20;5.60;;;;;;;34.30;20.24;96900.16;4947140;28;20284;-82
2023/06/18 09:22:20;;;;;;;6.22;5.63;;;;;;;34.72;19.82;96895.28;4946976;28;20608;-81
2023/06/18 09:24:45;;;;;;;5.55;5.15;;;;;;;34.66;19.66;96894.19;4959934;28;20169;-80
2023/06/18 09:27:11;;;;;;;5.90;5.40;;;;;;;34.82;19.25;96904.38;4983179;28;20240;-81
2023/06/18 09:29:38;;;;;;;5.95;5.40;;;;;;;35.00;20.07;96901.38;4932537;28;20204;-83
2023/06/18 09:32:09;;;;;;;6.75;6.25;;;;;;;35.17;18.71;96894.88;4949564;28;20506;-82
2023/06/18 09:34:35;;;;;;;6.95;5.85;;;;;;;35.18;18.26;96892.94;4949172;28;20199;-80
2023/06/18 09:37:03;;;;;;;6.25;5.75;;;;;;;35.11;18.86;96891.13;4979957;28;20178;-84
2023/06/18 09:39:28;;;;;;;6.55;5.85;;;;;;;35.47;18.40;96897.84;4960134;28;20263;-84
2023/06/18 09:41:55;;;;;;;6.15;5.68;;;;;;;35.96;18.45;96898.03;4965977;28;20282;-83
2023/06/18 09:44:22;;;;;;;6.90;6.40;;;;;;;35.72;19.17;96898.13;4961008;28;20326;-82
2023/06/18 09:46:57;;;;;;;5.88;5.47;;;;;;;35.90;17.56;96889.63;4957974;28;20241;-83
2023/06/18 09:49:25;;;;;;;6.30;5.85;;;;;;;35.83;18.49;96889.00;4946210;28;20212;-82
2023/06/18 09:51:51;;;;;;;6.20;5.70;;;;;;;36.03;18.29;96895.16;4955960;28;20214;-81
2023/06/18 09:54:16;;;;;;;6.28;5.88;;;;;;;36.47;18.33;96886.84;4959511;28;20245;-82
2023/06/18 09:57:02;;;;;;;6.30;5.90;;;;;;;37.01;17.43;96890.97;4949358;28;20451;-83
2023/06/18 09:59:28;;;;;;;6.75;6.20;;;;;;;36.61;17.64;96889.22;4941576;28;20152;-82
2023/06/18 10:01:57;;;;;;;6.22;5.63;;;;;;;36.72;18.03;96884.31;4930118;28;20223;-82
2023/06/18 10:04:22;;;;;;;6.45;6.05;;;;;;;36.70;17.17;96889.38;4968401;28;20297;-83
2023/06/18 10:06:58;;;;;;;6.13;5.72;;;;;;;36.86;16.80;96885.13;4959101;28;20536;-84
2023/06/18 10:09:37;;;;;;;6.63;6.03;;;;;;;36.53;18.31;96891.31;4945893;28;20270;-81
2023/06/18 10:12:04;;;;;;;6.20;5.75;;;;;;;36.72;17.37;96886.25;4962110;28;20295;-82
2023/06/18 10:14:31;;;;;;;6.75;6.35;;;;;;;36.71;17.27;96887.47;4950746;28;20429;-81
2023/06/18 10:17:11;;;;;;;6.65;6.13;;;;;;;36.95;17.77;96885.31;4951750;28;20349;-83
2023/06/18 10:19:43;;;;;;;6.63;6.13;;;;;;;36.91;17.00;96876.47;4952379;28;20171;-83
2023/06/18 10:22:11;;;;;;;6.82;6.22;;;;;;;36.89;17.32;96878.84;4964007;28;20283;-81
2023/06/18 10:24:41;;;;;;;6.55;6.07;;;;;;;36.85;17.51;96889.81;4964902;28;20436;-81
2023/06/18 10:27:07;;;;;;;6.90;6.32;;;;;;;36.68;17.64;96885.56;4931177;28;20142;-81
2023/06/18 10:29:33;;;;;;;6.85;6.45;;;;;;;36.45;17.17;96886.50;4953973;28;20211;-82
2023/06/18 10:32:01;;;;;;;7.13;6.53;;;;;;;36.69;17.64;96882.47;4946851;28;20308;-84
2023/06/18 10:34:26;;;;;;;6.55;6.10;;;;;;;37.15;16.61;96873.53;4929472;28;20363;-83
2023/06/18 10:36:52;;;;;;;6.82;6.32;;;;;;;36.63;17.97;96875.97;4925121;28;20389;-83
2023/06/18 10:39:18;;;;;;;6.70;6.20;;;;;;;36.73;17.94;96871.50;4954425;28;20419;-82
2023/06/18 10:41:45;;;;;;;6.80;6.40;;;;;;;36.32;18.45;96865.47;4953548;28;20168;-84
2023/06/18 10:44:10;;;;;;;7.20;6.55;;;;;;;36.71;18.29;96860.34;4947839;28;20318;-82
2023/06/18 10:46:42;;;;;;;7.22;6.72;;;;;;;37.05;17.17;96857.13;4958738;28;20238;-80
2023/06/18 10:49:20;;;;;;;7.50;6.90;;;;;;;37.54;16.67;96856.19;4945679;28;20172;-84
2023/06/18 10:51:57;;;;;;;6.97;6.53;;;;;;;37.43;17.14;96850.31;4949149;28;20238;-81
2023/06/18 10:54:33;;;;;;;6.82;6.32;;;;;;;37.48;17.54;96847.81;4953810;28;20318;-83
2023/06/18 10:56:59;;;;;;;6.75;6.35;;;;;;;37.76;17.03;96839.28;4941086;28;20345;-84
2023/06/18 10:59:44;;;;;;;7.28;6.68;;;;;;;37.25;17.15;96842.66;4948894;28;20161;-82
2023/06/18 11:02:13;;;;;;;6.78;6.28;;;;;;;37.44;17.68;96841.69;4961009;28;20273;-82
2023/06/18 11:04:40;;;;;;;6.95;6.35;;;;;;;37.55;17.25;96835.19;4976818;28;20242;-83
2023/06/18 11:07:23;;;;;;;6.65;6.18;;;;;;;38.17;15.42;96824.09;4959833;28;20211;-83
2023/06/18 11:09:58;;;;;;;6.85;6.45;;;;;;;37.78;17.08;96826.03;4960485;28;20198;-82
2023/06/18 11:12:36;;;;;;;6.45;6.05;;;;;;;37.92;17.24;96820.13;4952998;28;20206;-83
2023/06/18 11:15:17;;;;;;;6.43;6.03;;;;;;;38.29;15.86;96817.09;4937243;28;20200;-84
2023/06/18 11:17:50;;;;;;;6.93;6.40;;;;;;;37.63;16.16;96820.22;4968903;28;20241;-83
2023/06/18 11:20:20;;;;;;;6.20;5.82;;;;;;;37.71;16.85;96829.72;4951394;28;20237;-82
2023/06/18 11:22:47;;;;;;;6.95;6.40;;;;;;;37.17;16.78;96814.91;4971538;28;20203;-82
2023/06/18 11:25:14;;;;;;;6.90;6.43;;;;;;;36.82;16.54;96813.94;4934918;28;20304;-82
2023/06/18 11:27:42;;;;;;;6.70;6.20;;;;;;;36.77;18.24;96825.31;4963230;28;20191;-82
2023/06/18 11:30:08;;;;;;;7.00;6.57;;;;;;;36.70;18.61;96813.44;4918279;28;20434;-82
2023/06/18 11:32:34;;;;;;;6.75;6.18;;;;;;;36.43;18.34;96804.81;4928384;28;20191;-82